createdAt,value
2022-09-09T00:09:56.011Z,14.28
2022-09-09T00:20:58.423Z,13.99
2022-09-09T00:32:03.043Z,13.87
2022-09-09T00:42:56.363Z,13.72
2022-09-09T00:54:19.996Z,13.62
2022-09-09T01:04:40.203Z,13.50
2022-09-09T01:14:55.302Z,13.41
2022-09-09T01:25:55.534Z,13.37
2022-09-09T01:36:22.537Z,13.39
2022-09-09T01:46:51.924Z,13.40
2022-09-09T01:57:40.324Z,13.41
2022-09-09T02:08:47.596Z,13.45
2022-09-09T02:19:52.485Z,13.43
2022-09-09T02:30:29.687Z,13.40
2022-09-09T02:40:56.552Z,13.38
2022-09-09T02:51:28.223Z,13.49
2022-09-09T03:02:10.840Z,13.46
2022-09-09T03:12:27.944Z,13.45
2022-09-09T03:23:00.395Z,13.41
2022-09-09T03:33:19.913Z,13.37
2022-09-09T03:44:17.759Z,13.35
2022-09-09T03:54:36.392Z,13.30
2022-09-09T04:05:01.239Z,13.29
2022-09-09T04:15:30.541Z,13.29
2022-09-09T04:26:31.755Z,13.27
2022-09-09T04:37:38.940Z,13.27
2022-09-09T04:48:41.797Z,13.36
2022-09-09T04:59:22.575Z,13.44
2022-09-09T05:10:27.176Z,13.50
2022-09-09T05:21:25.361Z,13.55
2022-09-09T05:32:34.774Z,13.52
2022-09-09T05:43:24.304Z,13.53
2022-09-09T05:53:35.823Z,13.57
2022-09-09T06:04:50.254Z,13.64
2022-09-09T06:15:36.289Z,13.71
2022-09-09T06:25:50.147Z,13.80
2022-09-09T06:36:00.258Z,13.84
2022-09-09T06:46:29.036Z,13.86
2022-09-09T06:56:44.621Z,13.86
2022-09-09T07:07:14.808Z,13.93
2022-09-09T07:17:37.992Z,14.07
2022-09-09T07:27:57.673Z,14.09
2022-09-09T07:38:46.998Z,14.20
2022-09-09T07:49:54.108Z,14.23
2022-09-09T08:00:54.683Z,14.36
2022-09-09T08:11:38.611Z,14.42
2022-09-09T08:22:31.869Z,14.42
2022-09-09T08:33:10.304Z,14.56
2022-09-09T08:43:24.380Z,14.59
2022-09-09T08:54:03.530Z,14.70
2022-09-09T09:05:18.061Z,14.72
2022-09-09T09:15:50.401Z,14.89
2022-09-09T09:26:20.237Z,14.97
2022-09-09T09:36:36.147Z,15.10
2022-09-09T09:47:21.509Z,15.19
2022-09-09T09:58:30.267Z,15.14
2022-09-09T10:08:59.397Z,15.20
2022-09-09T10:19:19.224Z,15.31
2022-09-09T10:30:00.839Z,15.33
2022-09-09T10:40:57.400Z,15.39
2022-09-09T10:52:06.283Z,15.42
2022-09-09T11:02:43.293Z,15.52
2022-09-09T11:13:01.611Z,15.49
2022-09-09T11:23:52.541Z,15.53
2022-09-09T11:34:39.227Z,15.71
2022-09-09T11:44:58.527Z,15.80
2022-09-09T11:55:34.722Z,15.95
2022-09-09T12:05:57.636Z,16.00
2022-09-09T12:16:39.613Z,16.01
2022-09-09T12:27:46.671Z,16.00
2022-09-09T12:38:30.243Z,15.94
2022-09-09T12:49:34.492Z,15.96
2022-09-09T13:00:09.311Z,16.00
2022-09-09T13:11:28.218Z,16.04
2022-09-09T13:22:35.142Z,16.09
2022-09-09T13:32:57.399Z,16.13
2022-09-09T13:54:38.146Z,15.96
2022-09-09T14:04:45.034Z,15.94
2022-09-09T14:14:53.629Z,15.96
2022-09-09T14:24:58.817Z,15.99
2022-09-09T14:35:05.324Z,16.07
2022-09-09T14:45:09.165Z,16.12
2022-09-09T14:55:16.389Z,16.17
2022-09-09T15:05:26.079Z,16.14
2022-09-09T15:15:38.941Z,16.18
2022-09-09T15:26:07.261Z,16.29
2022-09-09T15:36:23.040Z,16.31
2022-09-09T15:47:06.186Z,16.29
2022-09-09T15:57:20.482Z,16.28
2022-09-09T16:07:59.551Z,16.27
2022-09-09T16:18:48.776Z,16.19
2022-09-09T16:29:15.642Z,16.16
2022-09-09T16:39:43.750Z,16.08
2022-09-09T16:50:18.922Z,16.07
2022-09-09T17:00:48.104Z,15.99
2022-09-09T17:11:04.136Z,15.91
2022-09-09T17:21:27.208Z,15.83
2022-09-09T17:31:35.255Z,15.81
2022-09-09T17:41:42.165Z,15.76
2022-09-09T17:52:08.554Z,15.67
2022-09-09T18:02:22.062Z,15.62
2022-09-09T18:12:41.485Z,15.57
2022-09-09T18:22:52.729Z,15.52
2022-09-09T18:33:14.292Z,15.40
2022-09-09T18:43:38.083Z,15.36
2022-09-09T18:54:17.272Z,15.29
2022-09-09T19:04:27.655Z,15.21
2022-09-09T19:14:38.712Z,15.18
2022-09-09T19:24:50.008Z,15.16
2022-09-09T19:35:54.285Z,15.14
2022-09-09T19:46:08.805Z,15.16
2022-09-09T19:56:30.870Z,15.09
2022-09-09T20:06:47.044Z,15.00
2022-09-09T20:17:33.342Z,14.97
2022-09-09T20:27:55.634Z,14.97
2022-09-09T20:38:08.044Z,14.89
2022-09-09T20:49:03.282Z,14.88
2022-09-09T20:59:27.375Z,14.88
2022-09-09T21:09:47.567Z,14.91
2022-09-09T21:19:58.595Z,14.93
2022-09-09T21:30:17.597Z,14.88
2022-09-09T21:40:36.472Z,14.87
2022-09-09T21:50:51.491Z,14.89
2022-09-09T22:01:09.264Z,14.92
2022-09-09T22:11:17.793Z,14.95
2022-09-09T22:21:34.399Z,14.98
2022-09-09T22:31:43.502Z,15.02
2022-09-09T22:41:54.799Z,15.06
2022-09-09T22:52:11.298Z,15.01
2022-09-09T23:02:27.374Z,14.91
2022-09-09T23:12:42.619Z,14.84
2022-09-09T23:23:13.492Z,14.82
2022-09-09T23:33:16.852Z,14.80
2022-09-09T23:43:25.667Z,14.71
2022-09-09T23:53:57.738Z,14.65
